createdAt,value
2019-05-25T00:01:19.019Z,68.83
2019-05-25T00:04:27.649Z,68.93
2019-05-25T00:07:37.359Z,69.09
2019-05-25T00:10:47.092Z,69.28
2019-05-25T00:13:55.760Z,70.17
2019-05-25T00:17:04.389Z,70.08
2019-05-25T00:20:13.038Z,70.40
2019-05-25T00:23:31.831Z,70.49
2019-05-25T00:26:40.540Z,71.04
2019-05-25T00:29:49.229Z,71.76
2019-05-25T00:32:57.885Z,72.31
2019-05-25T00:36:06.785Z,73.12
2019-05-25T00:39:16.748Z,73.37
2019-05-25T00:42:25.261Z,72.88
2019-05-25T00:45:33.926Z,72.20
2019-05-25T00:48:52.720Z,71.55
2019-05-25T00:52:01.351Z,71.47
2019-05-25T00:55:10.489Z,71.52
2019-05-25T00:58:19.062Z,71.02
2019-05-25T01:01:27.738Z,71.27
2019-05-25T01:04:36.372Z,70.97
2019-05-25T01:07:44.994Z,70.77
2019-05-25T01:10:53.643Z,70.34
2019-05-25T01:14:02.302Z,70.92
2019-05-25T01:17:10.953Z,71.07
2019-05-25T01:20:21.025Z,71.40
2019-05-25T01:23:40.036Z,71.20
2019-05-25T01:26:50.473Z,71.59
2019-05-25T01:29:59.021Z,71.63
2019-05-25T01:33:09.098Z,71.98
2019-05-25T01:36:17.777Z,71.80
2019-05-25T01:39:26.349Z,71.67
2019-05-25T01:42:34.963Z,71.84
2019-05-25T01:45:53.806Z,71.50
2019-05-25T01:49:03.947Z,71.21
2019-05-25T01:52:12.469Z,71.70
2019-05-25T01:55:21.285Z,71.54
2019-05-25T01:58:29.900Z,71.69
2019-05-25T02:01:38.624Z,71.92
2019-05-25T02:05:05.079Z,72.06
2019-05-25T02:08:24.009Z,71.79
2019-05-25T02:11:32.667Z,71.54
2019-05-25T02:14:41.485Z,71.67
2019-05-25T02:17:50.208Z,71.13
2019-05-25T02:21:09.717Z,70.62
2019-05-25T02:24:29.007Z,71.06
2019-05-25T02:27:37.666Z,70.38
2019-05-25T02:30:46.670Z,70.64
2019-05-25T02:33:55.288Z,70.78
2019-05-25T02:37:03.919Z,71.05
2019-05-25T02:40:13.760Z,71.36
2019-05-25T02:43:22.353Z,71.47
2019-05-25T02:46:31.091Z,71.68
2019-05-25T02:49:49.910Z,71.96
2019-05-25T02:52:58.536Z,71.65
2019-05-25T02:56:07.190Z,71.89
2019-05-25T02:59:16.812Z,71.78
2019-05-25T03:02:35.679Z,71.65
2019-05-25T03:05:44.363Z,71.56
2019-05-25T03:08:54.673Z,71.47
2019-05-25T03:12:03.727Z,71.54
2019-05-25T03:15:13.269Z,71.29
2019-05-25T03:18:20.601Z,71.65
2019-05-25T03:21:29.473Z,71.96
2019-05-25T03:24:38.086Z,71.77
2019-05-25T03:27:46.754Z,71.58
2019-05-25T03:30:55.401Z,72.02
2019-05-25T03:34:14.164Z,72.10
2019-05-25T03:37:22.798Z,71.78
2019-05-25T03:40:31.510Z,71.52
2019-05-25T03:43:40.052Z,71.45
2019-05-25T03:46:48.738Z,71.23
2019-05-25T03:49:57.349Z,70.06
2019-05-25T03:53:05.993Z,70.43
2019-05-25T03:56:14.635Z,70.56
2019-05-25T03:59:33.447Z,70.65
2019-05-25T04:02:42.025Z,71.27
2019-05-25T04:05:50.948Z,71.15
2019-05-25T04:08:59.606Z,70.99
2019-05-25T04:12:08.590Z,71.39
2019-05-25T04:15:16.105Z,70.69
2019-05-25T04:18:24.668Z,70.67
2019-05-25T04:21:33.234Z,71.27
2019-05-25T04:24:41.877Z,70.70
2019-05-25T04:27:50.591Z,70.85
2019-05-25T04:30:59.217Z,70.50
2019-05-25T04:34:07.869Z,70.23
2019-05-25T04:37:16.526Z,70.33
2019-05-25T04:40:25.224Z,70.81
2019-05-25T04:43:44.029Z,70.51
2019-05-25T04:46:52.687Z,70.42
2019-05-25T04:50:01.310Z,70.59
2019-05-25T04:53:10.023Z,70.47
2019-05-25T04:56:18.696Z,70.52
2019-05-25T04:59:27.409Z,70.20
2019-05-25T05:02:36.047Z,70.46
2019-05-25T05:05:44.992Z,70.44
2019-05-25T05:08:53.586Z,70.39
2019-05-25T05:12:02.093Z,70.51
2019-05-25T05:15:21.788Z,70.26
2019-05-25T05:18:31.939Z,70.23
2019-05-25T05:21:41.110Z,69.99
2019-05-25T05:24:49.685Z,69.64
2019-05-25T05:27:58.301Z,69.22
2019-05-25T05:31:23.892Z,68.66
2019-05-25T05:34:32.591Z,69.17
2019-05-25T05:37:43.070Z,68.15
2019-05-25T05:40:56.152Z,68.01
2019-05-25T05:44:16.886Z,67.76
2019-05-25T05:47:26.029Z,67.53
2019-05-25T05:50:46.236Z,66.96
2019-05-25T05:53:57.983Z,66.84
2019-05-25T05:57:12.473Z,66.89
2019-05-25T06:00:18.213Z,66.40
2019-05-25T06:03:36.967Z,65.23
2019-05-25T06:06:45.504Z,65.66
2019-05-25T06:09:54.107Z,65.55
2019-05-25T06:13:02.823Z,65.94
2019-05-25T06:16:11.451Z,66.10
2019-05-25T06:19:20.071Z,65.27
2019-05-25T06:22:28.599Z,65.91
2019-05-25T06:25:47.456Z,66.16
2019-05-25T06:28:56.130Z,66.30
2019-05-25T06:32:06.480Z,65.42
2019-05-25T06:35:15.673Z,65.35
2019-05-25T06:38:24.160Z,65.44
2019-05-25T06:41:32.781Z,65.51
2019-05-25T06:44:41.408Z,65.87
2019-05-25T06:47:50.026Z,64.83
2019-05-25T06:50:58.634Z,66.04
2019-05-25T06:54:07.130Z,65.30
2019-05-25T06:57:25.941Z,64.90
2019-05-25T07:00:34.581Z,65.06
2019-05-25T07:03:43.180Z,65.34
2019-05-25T07:19:25.031Z,59.79
2019-05-25T07:22:33.651Z,60.17
2019-05-25T07:25:42.193Z,60.10
2019-05-25T07:28:50.726Z,59.98
2019-05-25T07:32:00.421Z,59.00
2019-05-25T07:35:09.469Z,59.19
2019-05-25T07:38:28.285Z,57.86
2019-05-25T07:41:36.821Z,57.74
2019-05-25T07:44:45.311Z,57.68
2019-05-25T07:47:53.845Z,57.91
2019-05-25T07:51:02.378Z,58.05
2019-05-25T07:54:22.955Z,56.96
2019-05-25T07:57:31.756Z,57.58
2019-05-25T08:00:40.331Z,57.21
2019-05-25T08:03:49.129Z,57.30
2019-05-25T08:06:57.748Z,56.94
2019-05-25T08:10:07.362Z,56.61
2019-05-25T08:13:26.105Z,54.62
2019-05-25T08:16:34.764Z,53.82
2019-05-25T08:19:43.385Z,54.18
2019-05-25T08:22:51.942Z,53.88
2019-05-25T08:26:00.494Z,53.68
2019-05-25T08:29:09.075Z,53.89
2019-05-25T08:32:27.937Z,54.06
2019-05-25T08:35:36.642Z,55.39
2019-05-25T08:38:45.379Z,55.32
2019-05-25T08:41:54.018Z,55.71
2019-05-25T08:45:02.608Z,56.59
2019-05-25T08:48:11.288Z,55.92
2019-05-25T08:51:19.824Z,56.57
2019-05-25T08:54:28.339Z,55.93
2019-05-25T08:57:47.129Z,56.39
2019-05-25T09:00:55.692Z,56.55
2019-05-25T09:04:03.381Z,56.69
2019-05-25T09:07:12.010Z,56.74
2019-05-25T09:10:20.844Z,57.45
2019-05-25T09:13:29.438Z,56.54
2019-05-25T09:16:38.024Z,56.17
2019-05-25T09:19:46.684Z,55.29
2019-05-25T09:22:55.389Z,54.99
2019-05-25T09:26:04.111Z,55.28
2019-05-25T09:29:13.086Z,55.25
2019-05-25T09:32:21.644Z,54.56
2019-05-25T09:35:30.297Z,54.56
2019-05-25T09:38:43.161Z,53.87
2019-05-25T09:41:50.343Z,53.86
2019-05-25T09:44:59.078Z,53.96
2019-05-25T09:48:07.754Z,53.85
2019-05-25T09:51:16.386Z,53.71
2019-05-25T09:54:25.090Z,54.10
2019-05-25T09:57:35.149Z,53.57
2019-05-25T10:00:43.965Z,52.03
2019-05-25T10:03:52.648Z,52.82
2019-05-25T10:07:01.306Z,52.74
2019-05-25T10:10:10.148Z,52.33
2019-05-25T10:13:28.849Z,51.63
2019-05-25T10:16:37.772Z,51.45
2019-05-25T10:19:46.597Z,51.77
2019-05-25T10:22:55.235Z,52.16
2019-05-25T10:26:03.977Z,52.41
2019-05-25T10:29:12.527Z,52.55
2019-05-25T10:32:21.257Z,52.67
2019-05-25T10:35:29.917Z,53.68
2019-05-25T10:38:38.582Z,54.40
2019-05-25T10:41:46.907Z,54.61
2019-05-25T10:45:16.755Z,55.00
2019-05-25T10:48:26.160Z,54.64
2019-05-25T10:51:34.739Z,54.16
2019-05-25T10:54:43.609Z,54.14
2019-05-25T10:58:02.835Z,53.66
2019-05-25T11:01:11.491Z,53.95
2019-05-25T11:04:19.563Z,53.91
2019-05-25T11:07:29.312Z,52.41
2019-05-25T11:10:48.488Z,52.93
2019-05-25T11:13:57.225Z,53.23
2019-05-25T11:17:05.985Z,54.69
2019-05-25T11:20:18.358Z,54.54
2019-05-25T11:23:26.961Z,54.16
2019-05-25T11:26:35.651Z,54.42
2019-05-25T11:29:44.279Z,54.47
2019-05-25T11:32:52.833Z,53.45
2019-05-25T11:36:01.371Z,54.21
2019-05-25T11:39:10.109Z,54.24
2019-05-25T11:42:19.977Z,52.43
2019-05-25T11:45:39.427Z,51.06
2019-05-25T11:48:58.297Z,51.41
2019-05-25T11:52:07.431Z,51.95
2019-05-25T11:55:26.386Z,50.21
2019-05-25T11:58:47.102Z,50.02
2019-05-25T12:01:48.952Z,50.41
2019-05-25T12:04:57.606Z,51.80
2019-05-25T12:08:06.371Z,50.83
2019-05-25T12:11:16.954Z,51.61
2019-05-25T12:14:25.522Z,49.95
2019-05-25T12:17:34.268Z,49.89
2019-05-25T12:20:42.901Z,49.87
2019-05-25T12:23:51.724Z,51.13
2019-05-25T12:27:00.350Z,51.83
2019-05-25T12:30:11.009Z,52.70
2019-05-25T12:33:19.547Z,52.41
2019-05-25T12:36:26.850Z,53.66
2019-05-25T12:39:37.300Z,53.49
2019-05-25T12:42:47.230Z,53.16
2019-05-25T12:45:56.571Z,52.62
2019-05-25T12:49:05.270Z,52.23
2019-05-25T12:52:13.867Z,51.08
2019-05-25T12:55:22.789Z,51.56
2019-05-25T12:58:31.446Z,51.69
2019-05-25T13:01:40.081Z,52.33
2019-05-25T13:04:48.743Z,52.10
2019-05-25T13:07:57.423Z,52.96
2019-05-25T13:11:09.403Z,52.78
2019-05-25T13:14:26.571Z,53.29
2019-05-25T13:17:35.296Z,53.08
2019-05-25T13:20:43.957Z,53.41
2019-05-25T13:23:52.661Z,53.79
2019-05-25T13:27:00.962Z,54.71
2019-05-25T13:30:09.994Z,54.55
2019-05-25T13:33:18.640Z,55.38
2019-05-25T13:36:27.438Z,55.24
2019-05-25T13:39:36.377Z,53.76
2019-05-25T13:42:45.421Z,54.35
2019-05-25T13:45:54.152Z,54.34
2019-05-25T13:49:02.767Z,55.03
2019-05-25T13:52:11.662Z,55.83
2019-05-25T13:55:20.941Z,55.87
2019-05-25T13:58:29.795Z,56.03
2019-05-25T14:01:38.428Z,54.86
2019-05-25T14:04:47.071Z,54.92
2019-05-25T14:07:55.690Z,55.11
2019-05-25T14:11:04.557Z,54.54
2019-05-25T14:14:13.077Z,54.53
2019-05-25T14:17:23.034Z,54.80
2019-05-25T14:20:41.861Z,55.80
2019-05-25T14:23:50.591Z,55.11
2019-05-25T14:26:59.244Z,56.13
2019-05-25T14:30:09.565Z,55.58
2019-05-25T14:33:18.193Z,56.29
2019-05-25T14:36:26.843Z,56.04
2019-05-25T14:39:35.470Z,56.64
2019-05-25T14:42:44.138Z,57.26
2019-05-25T14:45:53.618Z,56.74
2019-05-25T14:49:02.223Z,56.85
2019-05-25T14:52:12.880Z,57.10
2019-05-25T14:55:21.528Z,56.67
2019-05-25T14:58:30.136Z,56.42
2019-05-25T15:01:39.150Z,56.36
2019-05-25T15:04:47.769Z,56.61
2019-05-25T15:07:56.469Z,56.29
2019-05-25T15:11:05.050Z,56.06
2019-05-25T15:14:13.781Z,56.19
2019-05-25T15:17:22.448Z,57.41
2019-05-25T15:20:30.629Z,57.11
2019-05-25T15:23:39.184Z,57.23
2019-05-25T15:26:50.114Z,56.75
2019-05-25T15:29:58.643Z,57.26
2019-05-25T15:33:07.215Z,57.52
2019-05-25T15:36:15.734Z,57.29
2019-05-25T15:39:24.333Z,57.13
2019-05-25T15:42:32.861Z,57.16
2019-05-25T15:45:51.878Z,56.13
2019-05-25T15:49:00.524Z,55.76
2019-05-25T15:52:09.074Z,55.81
2019-05-25T15:55:18.034Z,56.95
2019-05-25T15:58:26.736Z,55.83
2019-05-25T16:01:35.258Z,55.60
2019-05-25T16:04:43.838Z,56.35
2019-05-25T16:07:53.506Z,56.29
2019-05-25T16:11:02.081Z,55.65
2019-05-25T16:14:10.695Z,56.17
2019-05-25T16:17:19.213Z,56.33
2019-05-25T16:20:27.826Z,57.08
2019-05-25T16:23:36.484Z,55.91
2019-05-25T16:26:46.509Z,56.12
2019-05-25T16:30:06.458Z,55.12
2019-05-25T16:33:15.214Z,55.16
2019-05-25T16:36:23.782Z,55.73
2019-05-25T16:39:42.582Z,55.36
2019-05-25T16:42:50.724Z,55.06
2019-05-25T16:45:57.966Z,55.62
2019-05-25T16:49:06.692Z,55.55
2019-05-25T16:52:15.315Z,55.53
2019-05-25T16:55:23.855Z,55.94
2019-05-25T16:58:42.665Z,57.01
2019-05-25T17:01:51.200Z,57.59
2019-05-25T17:04:59.827Z,56.82
2019-05-25T17:08:08.353Z,56.62
2019-05-25T17:11:16.881Z,56.45
2019-05-25T17:14:35.661Z,56.87
2019-05-25T17:17:43.258Z,56.79
2019-05-25T17:21:02.182Z,55.83
2019-05-25T17:24:10.848Z,56.19
2019-05-25T17:27:19.381Z,56.19
2019-05-25T17:30:47.441Z,56.36
2019-05-25T17:33:56.268Z,55.96
2019-05-25T17:37:04.836Z,56.58
2019-05-25T17:40:14.086Z,56.85
2019-05-25T17:43:22.651Z,56.92
2019-05-25T17:46:31.364Z,56.83
2019-05-25T17:49:40.012Z,57.39
2019-05-25T17:52:48.536Z,57.17
2019-05-25T17:55:57.076Z,57.52
2019-05-25T17:59:15.885Z,57.75
2019-05-25T18:02:24.508Z,57.37
2019-05-25T18:05:33.144Z,57.60
2019-05-25T18:08:41.706Z,57.84
2019-05-25T18:11:50.361Z,58.04
2019-05-25T18:14:59.016Z,57.81
2019-05-25T18:18:08.249Z,58.60
2019-05-25T18:21:16.814Z,58.50
2019-05-25T18:24:25.377Z,57.66
2019-05-25T18:27:34.190Z,57.99
2019-05-25T18:30:42.852Z,58.16
2019-05-25T18:33:51.478Z,58.51
2019-05-25T18:37:10.469Z,58.36
2019-05-25T18:40:19.502Z,58.32
2019-05-25T18:43:38.432Z,58.49
2019-05-25T18:46:48.536Z,58.22
2019-05-25T18:49:57.393Z,56.80
2019-05-25T18:53:06.356Z,56.55
2019-05-25T18:56:15.086Z,56.74
2019-05-25T18:59:23.793Z,57.28
2019-05-25T19:02:32.455Z,57.31
2019-05-25T19:05:43.720Z,57.03
2019-05-25T19:09:02.602Z,56.95
2019-05-25T19:12:11.368Z,57.40
2019-05-25T19:15:20.999Z,57.64
2019-05-25T19:18:29.674Z,57.43
2019-05-25T19:21:38.320Z,57.93
2019-05-25T19:25:03.058Z,58.55
2019-05-25T19:28:11.691Z,58.77
2019-05-25T19:31:20.287Z,59.16
2019-05-25T19:34:28.839Z,59.70
2019-05-25T19:37:42.219Z,59.88
2019-05-25T19:40:49.099Z,60.20
2019-05-25T19:43:56.402Z,60.68
2019-05-25T19:47:15.187Z,60.85
2019-05-25T19:50:25.310Z,61.31
2019-05-25T19:53:33.928Z,61.43
2019-05-25T19:56:42.468Z,61.72
2019-05-25T19:59:51.135Z,62.03
2019-05-25T20:02:59.788Z,62.30
2019-05-25T20:06:19.503Z,62.16
2019-05-25T20:09:28.093Z,62.29
2019-05-25T20:12:36.750Z,61.92
2019-05-25T20:15:45.369Z,61.85
2019-05-25T20:18:53.968Z,61.50
2019-05-25T20:22:02.575Z,60.08
2019-05-25T20:25:12.758Z,60.92
2019-05-25T20:28:31.602Z,60.76
2019-05-25T20:31:41.317Z,60.03
2019-05-25T20:34:50.012Z,60.03
2019-05-25T20:37:58.530Z,60.04
2019-05-25T20:41:17.274Z,60.29
2019-05-25T20:44:25.844Z,60.20
2019-05-25T20:47:34.368Z,60.22
2019-05-25T20:50:43.118Z,59.88
2019-05-25T20:53:51.673Z,59.58
2019-05-25T20:56:58.705Z,59.18
2019-05-25T21:00:08.475Z,59.39
2019-05-25T21:03:17.087Z,59.61
2019-05-25T21:06:25.622Z,60.24
2019-05-25T21:09:34.184Z,60.74
2019-05-25T21:12:42.762Z,60.33
2019-05-25T21:16:01.540Z,60.22
2019-05-25T21:19:10.232Z,60.34
2019-05-25T21:22:18.791Z,60.56
2019-05-25T21:25:27.339Z,60.47
2019-05-25T21:28:36.139Z,60.48
2019-05-25T21:31:46.079Z,60.77
2019-05-25T21:35:24.177Z,60.93
2019-05-25T21:38:32.791Z,60.73
2019-05-25T21:41:41.324Z,61.18
2019-05-25T21:44:49.976Z,61.32
2019-05-25T21:47:58.512Z,61.38
2019-05-25T21:51:07.035Z,61.61
2019-05-25T21:54:25.906Z,61.78
2019-05-25T21:57:34.700Z,61.81
2019-05-25T22:00:43.446Z,61.51
2019-05-25T22:03:51.958Z,61.82
2019-05-25T22:07:00.488Z,62.17
2019-05-25T22:10:09.500Z,62.11
2019-05-25T22:13:27.865Z,62.38
2019-05-25T22:16:28.356Z,62.84
2019-05-25T22:19:36.969Z,63.00
2019-05-25T22:22:45.628Z,63.11
2019-05-25T22:26:04.391Z,63.03
2019-05-25T22:29:13.056Z,63.15
2019-05-25T22:32:21.694Z,63.59
2019-05-25T22:35:31.672Z,63.62
2019-05-25T22:38:40.388Z,63.64
2019-05-25T22:41:49.032Z,63.79
2019-05-25T22:44:57.724Z,63.41
2019-05-25T22:48:16.601Z,63.64
2019-05-25T22:51:25.208Z,63.71
2019-05-25T22:54:33.860Z,63.97
2019-05-25T22:57:42.533Z,64.63
2019-05-25T23:00:51.235Z,64.63
2019-05-25T23:04:00.472Z,64.87
2019-05-25T23:07:09.409Z,65.07
2019-05-25T23:10:18.483Z,64.99
2019-05-25T23:13:37.431Z,65.29
2019-05-25T23:16:46.058Z,65.21
2019-05-25T23:19:54.914Z,65.35
2019-05-25T23:23:03.714Z,65.39
2019-05-25T23:26:12.434Z,65.79
2019-05-25T23:29:21.401Z,66.16
2019-05-25T23:32:31.630Z,66.13
2019-05-25T23:35:40.144Z,66.37
2019-05-25T23:38:48.902Z,66.88
2019-05-25T23:41:57.516Z,67.33
2019-05-25T23:45:06.951Z,67.61
2019-05-25T23:48:15.602Z,67.58
2019-05-25T23:51:24.225Z,67.87
2019-05-25T23:54:32.860Z,67.77
2019-05-25T23:57:41.481Z,67.68
